Ardrishaig, United Kingdom
Current Conditions -  °F | °C
As of 4:20 AM on Sunday 21 Dec 2014 (Local Time) from EGPI Reporting Station
Broken Clouds Broken Clouds  
Wind Chill: 41°   Ceiling: 4400
Heat Index: 48°   Visibility: 6mi
Dew Point: 45°   Wind: 22mph
Humidity: 87%   Direction: 210°SSW
Pressure: 30"   Gusts: NA
Location:  56.02°N, 5.45°W
Report Text: EGPI 210420Z AUTO 21019KT 180V240 9999 FEW022/// BKN044/// 09/07 Q1016
Loading
Personal Weather Stations






























Interactive Weather Map New forecast layout! Learn more

10-Day Weather Forecast

Advertisements
Track Severe Weather on mobile